createdAt,value
2023-05-14T00:02:10.367Z,65.20
2023-05-14T00:04:37.315Z,65.80
2023-05-14T00:07:04.395Z,65.90
2023-05-14T00:09:32.053Z,66.20
2023-05-14T00:11:59.004Z,65.60
2023-05-14T00:14:26.067Z,65.50
2023-05-14T00:16:54.456Z,65.80
2023-05-14T00:19:21.738Z,65.70
2023-05-14T00:21:48.688Z,66.50
2023-05-14T00:24:15.799Z,66.10
2023-05-14T00:26:42.771Z,66.30
2023-05-14T00:29:09.856Z,66.70
2023-05-14T00:31:40.020Z,66.70
2023-05-14T00:34:07.248Z,66.50
2023-05-14T00:36:34.204Z,66.90
2023-05-14T00:39:01.211Z,67.10
2023-05-14T00:41:28.157Z,66.90
2023-05-14T00:43:55.086Z,67.80
2023-05-14T00:46:22.684Z,67.50
2023-05-14T00:48:51.033Z,67.40
2023-05-14T00:51:19.211Z,67.30
2023-05-14T00:53:47.235Z,67.60
2023-05-14T00:56:15.983Z,67.60
2023-05-14T00:58:42.918Z,66.80
2023-05-14T01:01:10.227Z,66.90
2023-05-14T01:03:37.437Z,67.20
2023-05-14T01:06:23.383Z,67.20
2023-05-14T01:09:09.198Z,66.90
2023-05-14T01:11:40.172Z,66.50
2023-05-14T01:14:22.138Z,66.20
2023-05-14T01:16:52.699Z,66.40
2023-05-14T01:19:33.560Z,66.90
2023-05-14T01:22:00.564Z,66.90
2023-05-14T01:24:27.671Z,67.10
2023-05-14T01:27:02.484Z,66.70
2023-05-14T01:29:32.562Z,66.80
2023-05-14T01:32:06.523Z,66.90
2023-05-14T01:34:35.510Z,66.90
2023-05-14T01:37:04.139Z,66.60
2023-05-14T01:39:32.686Z,66.60
2023-05-14T01:42:00.909Z,66.60
2023-05-14T01:44:28.375Z,66.80
2023-05-14T01:46:55.423Z,67.10
2023-05-14T01:49:22.811Z,67.10
2023-05-14T01:51:49.802Z,67.00
2023-05-14T01:54:16.749Z,67.30
2023-05-14T01:56:43.726Z,67.20
2023-05-14T01:59:11.370Z,67.10
2023-05-14T02:01:38.802Z,66.90
2023-05-14T02:04:05.868Z,67.20
2023-05-14T02:06:32.892Z,67.00
2023-05-14T02:08:59.964Z,66.80
2023-05-14T02:11:27.522Z,67.20
2023-05-14T02:13:54.517Z,67.50
2023-05-14T02:16:21.573Z,67.40
2023-05-14T02:18:48.596Z,67.20
2023-05-14T02:21:15.708Z,67.30
2023-05-14T02:23:43.147Z,67.30
2023-05-14T02:26:11.317Z,67.50
2023-05-14T02:28:38.344Z,67.10
2023-05-14T02:31:05.364Z,67.50
2023-05-14T02:33:32.720Z,67.80
2023-05-14T02:35:59.922Z,68.10
2023-05-14T02:38:27.306Z,68.20
2023-05-14T02:40:56.718Z,67.70
2023-05-14T02:43:23.801Z,67.90
2023-05-14T02:45:50.753Z,67.90
2023-05-14T02:48:17.716Z,68.10
2023-05-14T02:50:44.663Z,68.40
2023-05-14T02:53:11.928Z,68.30
2023-05-14T02:55:38.903Z,68.20
2023-05-14T02:58:05.858Z,68.20
2023-05-14T03:00:32.918Z,68.40
2023-05-14T03:03:00.712Z,68.30
2023-05-14T03:05:27.899Z,68.20
2023-05-14T03:07:54.884Z,68.00
2023-05-14T03:10:22.070Z,67.90
2023-05-14T03:12:49.486Z,67.90
2023-05-14T03:15:16.428Z,67.90
2023-05-14T03:17:43.406Z,67.80
2023-05-14T03:20:11.197Z,67.70
2023-05-14T03:22:38.182Z,67.80
2023-05-14T03:25:05.601Z,68.10
2023-05-14T03:27:33.741Z,68.30
2023-05-14T03:30:00.880Z,68.50
2023-05-14T03:32:28.083Z,68.70
2023-05-14T03:34:55.101Z,68.80
2023-05-14T03:37:22.089Z,68.80
2023-05-14T03:39:49.038Z,68.90
2023-05-14T03:42:16.074Z,68.90
2023-05-14T03:44:42.996Z,68.90
2023-05-14T03:47:09.988Z,68.90
2023-05-14T03:49:37.071Z,68.90
2023-05-14T03:52:04.871Z,69.10
2023-05-14T03:54:31.839Z,68.80
2023-05-14T03:56:59.988Z,69.20
2023-05-14T03:59:27.020Z,69.40
2023-05-14T04:01:54.245Z,69.60
2023-05-14T04:04:21.162Z,69.30
2023-05-14T04:06:48.135Z,69.70
2023-05-14T04:09:15.082Z,70.00
2023-05-14T04:11:42.216Z,70.00
2023-05-14T04:14:09.310Z,70.20
2023-05-14T04:16:36.347Z,70.70
2023-05-14T04:19:09.734Z,70.50
2023-05-14T04:21:37.917Z,70.90
2023-05-14T04:24:05.135Z,70.70
2023-05-14T04:26:32.076Z,71.00
2023-05-14T04:29:02.923Z,70.90
2023-05-14T04:31:30.508Z,71.00
2023-05-14T04:33:57.459Z,70.50
2023-05-14T04:36:24.854Z,70.70
2023-05-14T04:38:51.878Z,70.00
2023-05-14T04:41:18.852Z,69.80
2023-05-14T04:43:46.872Z,69.70
2023-05-14T04:46:14.032Z,69.70
2023-05-14T04:48:41.077Z,68.90
2023-05-14T04:51:08.102Z,68.90
2023-05-14T04:53:35.072Z,68.70
2023-05-14T04:56:02.029Z,68.70
2023-05-14T04:58:33.783Z,67.60
2023-05-14T05:01:06.289Z,67.10
2023-05-14T05:03:33.435Z,67.90
2023-05-14T05:06:00.512Z,67.20
2023-05-14T05:08:27.516Z,67.50
2023-05-14T05:10:54.535Z,66.40
2023-05-14T05:13:21.526Z,66.10
2023-05-14T05:15:48.579Z,65.00
2023-05-14T05:18:15.748Z,65.00
2023-05-14T05:20:42.728Z,65.50
2023-05-14T05:23:09.780Z,64.30
2023-05-14T05:25:36.689Z,63.10
2023-05-14T05:28:03.841Z,63.80
2023-05-14T05:30:30.881Z,62.50
2023-05-14T05:32:58.131Z,63.00
2023-05-14T05:35:25.143Z,61.90
2023-05-14T05:37:52.398Z,62.60
2023-05-14T05:40:19.390Z,62.30
2023-05-14T05:42:46.442Z,61.60
2023-05-14T05:45:13.417Z,61.80
2023-05-14T05:47:40.826Z,60.90
2023-05-14T05:50:08.877Z,59.80
2023-05-14T05:52:37.410Z,60.40
2023-05-14T05:55:04.779Z,59.30
2023-05-14T05:57:31.805Z,59.10
2023-05-14T05:59:58.733Z,58.60
2023-05-14T06:02:26.324Z,59.00
2023-05-14T06:04:53.468Z,58.70
2023-05-14T06:07:20.515Z,59.20
2023-05-14T06:09:47.516Z,58.80
2023-05-14T06:12:14.464Z,59.00
2023-05-14T06:14:41.422Z,57.80
2023-05-14T06:17:08.534Z,59.10
2023-05-14T06:19:35.500Z,58.40
2023-05-14T06:22:02.953Z,57.20
2023-05-14T06:24:30.704Z,58.10
2023-05-14T06:26:57.617Z,56.50
2023-05-14T06:29:25.538Z,56.40
2023-05-14T06:31:52.541Z,55.40
2023-05-14T06:34:19.770Z,55.70
2023-05-14T06:36:46.899Z,55.20
2023-05-14T06:39:13.945Z,55.80
2023-05-14T06:41:40.973Z,55.00
2023-05-14T06:44:13.801Z,55.10
2023-05-14T06:46:40.855Z,56.20
2023-05-14T06:49:07.831Z,55.30
2023-05-14T06:51:34.861Z,54.90
2023-05-14T06:54:01.835Z,56.30
2023-05-14T06:56:28.810Z,57.30
2023-05-14T06:58:55.972Z,56.90
2023-05-14T07:01:23.054Z,54.80
2023-05-14T07:03:50.091Z,55.20
2023-05-14T07:06:17.198Z,55.00
2023-05-14T07:08:47.460Z,54.30
2023-05-14T07:11:15.242Z,53.70
2023-05-14T07:13:42.822Z,54.40
2023-05-14T07:16:10.408Z,55.20
2023-05-14T07:18:37.644Z,55.50
2023-05-14T07:21:06.602Z,54.80
2023-05-14T07:23:36.594Z,53.00
2023-05-14T07:26:07.338Z,52.20
2023-05-14T07:28:34.790Z,52.20
2023-05-14T07:31:01.954Z,51.90
2023-05-14T07:33:29.027Z,52.80
2023-05-14T07:35:55.994Z,54.80
2023-05-14T07:38:23.073Z,54.10
2023-05-14T07:40:50.040Z,54.50
2023-05-14T07:43:17.254Z,55.40
2023-05-14T07:45:44.384Z,55.50
2023-05-14T07:48:11.742Z,54.90
2023-05-14T07:50:39.196Z,55.40
2023-05-14T07:53:06.370Z,55.20
2023-05-14T07:55:33.436Z,54.70
2023-05-14T07:58:00.948Z,54.20
2023-05-14T08:00:28.083Z,56.10
2023-05-14T08:02:56.110Z,55.20
2023-05-14T08:05:23.264Z,54.80
2023-05-14T08:07:50.308Z,53.40
2023-05-14T08:10:17.206Z,54.00
2023-05-14T08:12:44.248Z,55.50
2023-05-14T08:15:11.308Z,53.20
2023-05-14T08:17:38.342Z,54.50
2023-05-14T08:20:06.843Z,54.20
2023-05-14T08:22:34.036Z,54.80
2023-05-14T08:25:02.972Z,53.80
2023-05-14T08:27:30.012Z,54.90
2023-05-14T08:29:57.056Z,54.30
2023-05-14T08:32:24.377Z,55.70
2023-05-14T08:34:52.086Z,54.60
2023-05-14T08:37:19.177Z,57.80
2023-05-14T08:39:46.212Z,54.20
2023-05-14T08:42:13.954Z,54.70
2023-05-14T08:44:50.146Z,54.00
2023-05-14T08:47:20.865Z,54.70
2023-05-14T08:49:53.239Z,54.80
2023-05-14T08:52:22.274Z,54.30
2023-05-14T08:54:51.130Z,54.10
2023-05-14T08:57:20.302Z,53.70
2023-05-14T08:59:47.648Z,54.00
2023-05-14T09:02:17.420Z,54.20
2023-05-14T09:04:45.301Z,54.70
2023-05-14T09:07:12.530Z,55.10
2023-05-14T09:09:40.849Z,53.60
2023-05-14T09:12:08.198Z,53.20
2023-05-14T09:14:35.618Z,53.30
2023-05-14T09:17:03.628Z,54.20
2023-05-14T09:19:30.969Z,54.10
2023-05-14T09:22:01.532Z,53.50
2023-05-14T09:24:31.163Z,55.20
2023-05-14T09:26:58.782Z,54.50
2023-05-14T09:29:27.728Z,55.30
2023-05-14T09:31:58.435Z,53.70
2023-05-14T09:34:30.865Z,54.00
2023-05-14T09:37:02.100Z,53.40
2023-05-14T09:39:30.528Z,54.20
2023-05-14T09:41:57.823Z,53.90
2023-05-14T09:44:25.636Z,53.90
2023-05-14T09:46:53.715Z,52.20
2023-05-14T09:49:21.056Z,52.10
2023-05-14T09:51:49.589Z,52.10
2023-05-14T09:54:16.884Z,54.60
2023-05-14T09:56:44.574Z,51.80
2023-05-14T09:59:11.730Z,52.00
2023-05-14T10:01:39.624Z,52.90
2023-05-14T10:04:09.354Z,52.00
2023-05-14T10:06:42.128Z,54.20
2023-05-14T10:09:20.112Z,54.20
2023-05-14T10:11:51.012Z,54.80
2023-05-14T10:14:24.949Z,53.00
2023-05-14T10:16:53.074Z,53.00
2023-05-14T10:19:23.886Z,53.60
2023-05-14T10:21:59.944Z,54.00
2023-05-14T10:24:27.847Z,54.20
2023-05-14T10:26:55.008Z,54.40
2023-05-14T10:29:33.385Z,54.70
2023-05-14T10:32:08.064Z,54.70
2023-05-14T10:34:46.376Z,54.40
2023-05-14T10:37:18.008Z,54.90
2023-05-14T10:39:58.594Z,54.90
2023-05-14T10:42:39.787Z,54.70
2023-05-14T10:45:09.268Z,55.20
2023-05-14T10:47:38.165Z,54.50
2023-05-14T10:50:10.908Z,54.20
2023-05-14T10:52:38.338Z,53.20
2023-05-14T10:55:12.638Z,53.40
2023-05-14T10:57:41.956Z,53.70
2023-05-14T11:00:10.844Z,54.20
2023-05-14T11:02:43.190Z,55.00
2023-05-14T11:05:16.053Z,53.70
2023-05-14T11:07:44.402Z,53.80
2023-05-14T11:10:19.271Z,53.20
2023-05-14T11:12:51.244Z,53.20
2023-05-14T11:15:21.210Z,53.70
2023-05-14T11:17:49.629Z,53.80
2023-05-14T11:20:17.499Z,53.80
2023-05-14T11:22:46.707Z,53.70
2023-05-14T11:25:15.162Z,53.60
2023-05-14T11:27:43.836Z,53.90
2023-05-14T11:30:18.856Z,54.20
2023-05-14T11:32:49.330Z,55.00
2023-05-14T11:35:17.666Z,54.70
2023-05-14T11:37:51.621Z,54.50
2023-05-14T11:40:19.449Z,54.10
2023-05-14T11:42:46.536Z,53.90
2023-05-14T11:45:14.495Z,55.70
2023-05-14T11:47:42.915Z,53.80
2023-05-14T11:50:11.159Z,54.60
2023-05-14T11:52:41.737Z,53.50
2023-05-14T11:55:12.868Z,55.30
2023-05-14T11:57:41.164Z,53.90
2023-05-14T12:00:21.376Z,53.40
2023-05-14T12:02:51.990Z,54.60
2023-05-14T12:05:19.191Z,56.10
2023-05-14T12:07:47.287Z,56.70
2023-05-14T12:10:14.404Z,53.50
2023-05-14T12:12:44.951Z,53.90
2023-05-14T12:15:17.092Z,53.80
2023-05-14T12:17:50.869Z,55.30
2023-05-14T12:20:18.424Z,54.50
2023-05-14T12:22:45.390Z,55.10
2023-05-14T12:25:13.956Z,56.80
2023-05-14T12:27:41.531Z,54.20
2023-05-14T12:32:41.372Z,54.60
2023-05-14T12:35:09.516Z,53.90
2023-05-14T12:37:37.582Z,54.20
2023-05-14T12:40:09.376Z,54.30
2023-05-14T12:42:36.961Z,54.10
2023-05-14T12:45:07.262Z,54.80
2023-05-14T12:47:34.831Z,54.60
2023-05-14T12:50:02.235Z,53.10
2023-05-14T12:52:37.516Z,54.10
2023-05-14T12:55:09.836Z,53.20
2023-05-14T12:57:39.352Z,53.50
2023-05-14T13:00:08.510Z,53.10
2023-05-14T13:02:43.130Z,53.30
2023-05-14T13:05:11.732Z,54.00
2023-05-14T13:07:39.130Z,52.90
2023-05-14T13:10:06.821Z,53.30
2023-05-14T13:12:34.108Z,53.80
2023-05-14T13:15:01.098Z,54.10
2023-05-14T13:17:28.148Z,53.50
2023-05-14T13:19:55.271Z,54.20
2023-05-14T13:22:22.186Z,53.00
2023-05-14T13:24:49.130Z,53.20
2023-05-14T13:27:16.194Z,53.40
2023-05-14T13:29:43.227Z,53.90
2023-05-14T13:32:10.401Z,54.00
2023-05-14T13:34:37.421Z,53.10
2023-05-14T13:37:04.622Z,54.30
2023-05-14T13:39:31.561Z,53.20
2023-05-14T13:41:58.462Z,53.50
2023-05-14T13:44:25.654Z,53.50
2023-05-14T13:46:53.189Z,53.90
2023-05-14T13:49:20.371Z,53.50
2023-05-14T13:51:47.469Z,54.40
2023-05-14T13:54:14.391Z,53.30
2023-05-14T13:56:41.354Z,53.70
2023-05-14T13:59:08.371Z,54.60
2023-05-14T14:01:35.405Z,55.30
2023-05-14T14:04:02.477Z,55.60
2023-05-14T14:06:32.467Z,54.60
2023-05-14T14:08:59.713Z,55.00
2023-05-14T14:11:27.439Z,55.40
2023-05-14T14:13:54.610Z,57.60
2023-05-14T14:16:21.616Z,59.10
2023-05-14T14:18:48.597Z,58.50
2023-05-14T14:21:18.385Z,59.80
2023-05-14T14:23:47.389Z,58.00
2023-05-14T14:26:14.428Z,58.80
2023-05-14T14:28:41.545Z,60.30
2023-05-14T14:31:08.560Z,59.20
2023-05-14T14:33:35.550Z,58.90
2023-05-14T14:36:02.535Z,60.00
2023-05-14T14:38:29.451Z,60.00
2023-05-14T14:40:57.191Z,59.20
2023-05-14T14:43:24.845Z,59.20
2023-05-14T14:45:51.832Z,58.90
2023-05-14T14:48:32.947Z,58.80
2023-05-14T14:51:03.748Z,59.80
2023-05-14T14:53:31.612Z,61.30
2023-05-14T14:55:58.998Z,61.60
2023-05-14T14:58:26.246Z,62.90
2023-05-14T15:00:58.175Z,63.70
2023-05-14T15:03:25.677Z,63.70
2023-05-14T15:05:53.871Z,64.60
2023-05-14T15:08:24.985Z,64.70
2023-05-14T15:10:52.209Z,65.20
2023-05-14T15:13:19.763Z,65.50
2023-05-14T15:15:47.369Z,66.30
2023-05-14T15:18:14.294Z,67.00
2023-05-14T15:20:41.472Z,68.10
2023-05-14T15:23:09.221Z,68.80
2023-05-14T15:25:36.448Z,69.00
2023-05-14T15:28:05.708Z,69.70
2023-05-14T15:30:33.100Z,70.00
2023-05-14T15:33:00.719Z,70.30
2023-05-14T15:35:28.304Z,71.10
2023-05-14T15:37:59.862Z,72.10
2023-05-14T15:40:27.944Z,72.60
2023-05-14T15:42:55.291Z,73.20
2023-05-14T15:45:31.786Z,73.30
2023-05-14T15:48:00.935Z,73.80
2023-05-14T15:50:28.310Z,73.70
2023-05-14T15:52:55.548Z,74.60
2023-05-14T15:55:38.724Z,74.60
2023-05-14T16:02:18.645Z,73.60
2023-05-14T16:04:45.794Z,74.50
2023-05-14T16:07:13.460Z,75.00
2023-05-14T16:09:40.605Z,74.80
2023-05-14T16:12:08.579Z,74.50
2023-05-14T16:14:35.985Z,74.90
2023-05-14T16:17:03.640Z,74.70
2023-05-14T16:19:30.886Z,75.10
2023-05-14T16:21:57.977Z,75.10
2023-05-14T16:24:24.921Z,74.90
2023-05-14T16:26:51.960Z,74.80
2023-05-14T16:29:19.028Z,74.80
2023-05-14T16:31:46.238Z,75.10
2023-05-14T16:34:15.880Z,75.70
2023-05-14T16:36:43.762Z,76.00
2023-05-14T16:39:11.576Z,76.20
2023-05-14T16:41:38.694Z,75.90
2023-05-14T16:44:05.979Z,75.90
2023-05-14T16:46:33.500Z,76.10
2023-05-14T16:49:02.432Z,75.90
2023-05-14T16:51:32.988Z,76.10
2023-05-14T16:54:00.763Z,76.10
2023-05-14T16:56:27.867Z,76.20
2023-05-14T16:58:54.944Z,76.20
2023-05-14T17:01:22.088Z,76.10
2023-05-14T17:03:51.510Z,76.40
2023-05-14T17:06:18.808Z,76.40
2023-05-14T17:08:45.968Z,76.70
2023-05-14T17:11:15.780Z,76.90
2023-05-14T17:13:42.772Z,77.40
2023-05-14T17:16:09.893Z,77.20
2023-05-14T17:18:37.973Z,77.30
2023-05-14T17:21:06.053Z,77.20
2023-05-14T17:23:33.335Z,76.90
2023-05-14T17:26:00.321Z,76.70
2023-05-14T17:28:28.556Z,76.80
2023-05-14T17:30:56.357Z,76.50
2023-05-14T17:33:23.580Z,76.70
2023-05-14T17:35:50.692Z,76.80
2023-05-14T17:38:17.820Z,76.90
2023-05-14T17:40:45.232Z,76.80
2023-05-14T17:43:12.625Z,76.60
2023-05-14T17:45:52.979Z,77.00
2023-05-14T17:48:24.314Z,77.00
2023-05-14T17:50:52.160Z,77.10
2023-05-14T17:53:19.626Z,77.00
2023-05-14T17:55:47.080Z,76.80
2023-05-14T17:58:15.610Z,76.70
2023-05-14T18:00:45.536Z,76.90
2023-05-14T18:03:14.415Z,77.00
2023-05-14T18:05:41.831Z,77.10
2023-05-14T18:08:09.882Z,77.00
2023-05-14T18:10:37.249Z,77.20
2023-05-14T18:13:07.769Z,77.70
2023-05-14T18:15:37.815Z,77.70
2023-05-14T18:18:05.498Z,77.90
2023-05-14T18:20:34.145Z,78.00
2023-05-14T18:23:03.095Z,78.20
2023-05-14T18:25:30.276Z,78.60
2023-05-14T18:27:57.624Z,78.70
2023-05-14T18:30:24.679Z,78.80
2023-05-14T18:32:52.091Z,78.70
2023-05-14T18:35:19.481Z,78.40
2023-05-14T18:37:46.811Z,78.70
2023-05-14T18:40:16.312Z,79.10
2023-05-14T18:42:45.642Z,79.20
2023-05-14T18:45:12.748Z,79.00
2023-05-14T18:47:40.230Z,78.60
2023-05-14T18:50:08.350Z,78.50
2023-05-14T18:52:35.702Z,78.30
2023-05-14T18:55:03.000Z,78.30
2023-05-14T18:57:32.435Z,78.60
2023-05-14T19:00:03.488Z,78.50
2023-05-14T19:02:31.764Z,78.50
2023-05-14T19:04:59.298Z,78.50
2023-05-14T19:07:27.867Z,77.70
2023-05-14T19:09:55.177Z,77.60
2023-05-14T19:12:22.398Z,77.50
2023-05-14T19:14:49.338Z,77.70
2023-05-14T19:17:18.350Z,77.50
2023-05-14T19:19:46.122Z,77.40
2023-05-14T19:22:13.172Z,77.50
2023-05-14T19:24:40.251Z,77.90
2023-05-14T19:27:07.798Z,78.00
2023-05-14T19:29:36.866Z,77.70
2023-05-14T19:32:04.769Z,78.10
2023-05-14T19:34:31.785Z,77.80
2023-05-14T19:36:59.233Z,77.90
2023-05-14T19:39:29.415Z,78.30
2023-05-14T19:41:56.546Z,78.60
2023-05-14T19:44:23.718Z,79.00
2023-05-14T19:46:51.147Z,78.80
2023-05-14T19:49:18.215Z,79.00
2023-05-14T19:51:45.313Z,78.90
2023-05-14T19:54:12.375Z,79.00
2023-05-14T19:56:39.609Z,78.50
2023-05-14T19:59:07.064Z,78.70
2023-05-14T20:01:34.881Z,78.90
2023-05-14T20:04:04.360Z,78.80
2023-05-14T20:06:32.159Z,78.90
2023-05-14T20:08:59.440Z,79.10
2023-05-14T20:11:26.858Z,79.50
2023-05-14T20:13:53.938Z,79.90
2023-05-14T20:16:21.738Z,79.70
2023-05-14T20:18:49.106Z,80.10
2023-05-14T20:21:16.181Z,80.50
2023-05-14T20:23:43.238Z,80.70
2023-05-14T20:26:10.541Z,80.80
2023-05-14T20:28:37.509Z,80.80
2023-05-14T20:31:07.882Z,80.90
2023-05-14T20:33:35.385Z,81.00
2023-05-14T20:36:04.525Z,81.40
2023-05-14T20:38:32.824Z,81.50
2023-05-14T20:40:59.807Z,81.40
2023-05-14T20:43:30.568Z,81.90
2023-05-14T20:45:59.046Z,81.80
2023-05-14T20:48:26.414Z,82.00
2023-05-14T20:50:53.516Z,82.00
2023-05-14T20:53:20.520Z,82.00
2023-05-14T20:55:47.633Z,81.90
2023-05-14T20:58:14.771Z,81.70
2023-05-14T21:00:43.494Z,81.40
2023-05-14T21:03:10.842Z,81.40
2023-05-14T21:05:38.369Z,81.10
2023-05-14T21:08:05.967Z,81.30
2023-05-14T21:10:33.096Z,81.30
2023-05-14T21:13:03.018Z,81.10
2023-05-14T21:15:30.784Z,81.20
2023-05-14T21:17:57.828Z,81.10
2023-05-14T21:20:24.980Z,80.90
2023-05-14T21:22:52.012Z,81.00
2023-05-14T21:25:19.220Z,80.80
2023-05-14T21:27:46.343Z,80.70
2023-05-14T21:30:13.910Z,80.60
2023-05-14T21:32:40.980Z,80.20
2023-05-14T21:35:08.377Z,80.00
2023-05-14T21:37:35.436Z,79.90
2023-05-14T21:40:02.552Z,79.90
2023-05-14T21:42:29.627Z,79.70
2023-05-14T21:44:56.662Z,79.80
2023-05-14T21:47:23.753Z,79.80
2023-05-14T21:49:50.727Z,79.80
2023-05-14T21:52:17.762Z,79.90
2023-05-14T21:54:44.814Z,79.80
2023-05-14T21:57:11.763Z,79.50
2023-05-14T21:59:38.789Z,79.50
2023-05-14T22:02:07.291Z,79.60
2023-05-14T22:04:35.559Z,79.30
2023-05-14T22:07:02.889Z,79.20
2023-05-14T22:09:30.503Z,79.10
2023-05-14T22:11:58.420Z,79.30
2023-05-14T22:14:27.372Z,79.40
2023-05-14T22:16:54.573Z,79.50
2023-05-14T22:19:22.400Z,79.40
2023-05-14T22:21:49.603Z,79.40
2023-05-14T22:24:16.765Z,79.50
2023-05-14T22:26:44.076Z,79.50
2023-05-14T22:29:11.284Z,79.60
2023-05-14T22:31:38.400Z,79.70
2023-05-14T22:34:05.694Z,79.80
2023-05-14T22:36:32.662Z,79.70
2023-05-14T22:38:59.651Z,79.70
2023-05-14T22:41:26.782Z,79.60
2023-05-14T22:43:53.769Z,79.60
2023-05-14T22:46:21.218Z,79.30
2023-05-14T22:48:49.293Z,79.20
2023-05-14T22:51:16.736Z,79.20
2023-05-14T22:53:43.915Z,79.20
2023-05-14T22:56:11.064Z,79.20
2023-05-14T22:58:38.255Z,79.00
2023-05-14T23:01:05.433Z,79.10
2023-05-14T23:03:32.563Z,79.20
2023-05-14T23:05:59.597Z,79.10
2023-05-14T23:08:26.625Z,79.10
2023-05-14T23:10:53.977Z,79.10
2023-05-14T23:13:21.269Z,79.30
2023-05-14T23:15:48.825Z,79.40
2023-05-14T23:18:15.980Z,79.30
2023-05-14T23:20:43.416Z,79.20
2023-05-14T23:23:10.432Z,79.20
2023-05-14T23:25:38.321Z,79.20
2023-05-14T23:28:05.486Z,79.20
2023-05-14T23:30:32.471Z,79.40
2023-05-14T23:32:59.541Z,79.60
2023-05-14T23:35:26.870Z,79.50
2023-05-14T23:37:55.388Z,79.50
2023-05-14T23:40:22.417Z,79.40
2023-05-14T23:42:49.396Z,79.50
2023-05-14T23:45:16.606Z,79.60
2023-05-14T23:47:43.658Z,79.60
2023-05-14T23:50:10.868Z,79.70
2023-05-14T23:52:37.984Z,79.80
2023-05-14T23:55:05.430Z,79.90
2023-05-14T23:57:32.427Z,79.80
2023-05-14T23:59:59.447Z,79.90
